Time,TemperatureF,DewpointF,PressureIn,WindDirection,WindDirectionDegrees,WindSpeedMPH,WindSpeedGustMPH,Humidity,HourlyPrecipIn,Conditions,Clouds,dailyrainin,SoftwareType,DateUTC
2013-02-09 00:02:00,25.0,-99.9,-100.00,NNW,334,1.5,7.3,-999,0.00,,,0.00,customPerl,2013-02-09 07:02:00,
2013-02-09 00:07:00,28.0,-99.9,-100.00,NNW,331,6.1,7.6,-999,0.00,,,0.00,customPerl,2013-02-09 07:07:00,
2013-02-09 00:12:00,27.0,-99.9,-100.00,NNW,343,4.6,6.6,-999,0.00,,,0.00,customPerl,2013-02-09 07:12:00,
2013-02-09 00:17:00,26.0,-99.9,-100.00,NNW,344,1.4,4.0,-999,0.00,,,0.00,customPerl,2013-02-09 07:17:00,
2013-02-09 00:22:00,27.0,-99.9,-100.00,NNW,338,1.5,5.5,-999,0.00,,,0.00,customPerl,2013-02-09 07:22:00,
2013-02-09 00:27:00,26.0,-99.9,-100.00,NNW,344,3.0,3.7,-999,0.00,,,0.00,customPerl,2013-02-09 07:27:00,
2013-02-09 00:32:00,26.0,-99.9,-100.00,NNW,346,3.1,3.8,-999,0.00,,,0.00,customPerl,2013-02-09 07:32:00,
2013-02-09 00:37:00,26.0,-99.9,-100.00,North,5,3.9,5.3,-999,0.00,,,0.00,customPerl,2013-02-09 07:37:00,
2013-02-09 00:42:00,26.0,-99.9,-100.00,NNE,16,1.3,4.7,-999,0.00,,,0.00,customPerl,2013-02-09 07:42:00,
2013-02-09 00:47:00,25.0,-99.9,-100.00,NNE,12,0.0,0.0,-999,0.00,,,0.00,customPerl,2013-02-09 07:47:00,
2013-02-09 00:52:00,25.0,-99.9,-100.00,North,8,0.0,0.0,-999,0.00,,,0.00,customPerl,2013-02-09 07:52:00,
2013-02-09 00:57:00,25.0,-99.9,-100.00,North,8,0.0,0.0,-999,0.00,,,0.00,customPerl,2013-02-09 07:57:00,
2013-02-09 01:02:00,29.0,-99.9,-100.00,North,0,4.2,6.9,-999,0.00,,,0.00,customPerl,2013-02-09 08:02:00,
2013-02-09 01:07:00,27.0,-99.9,-100.00,North,358,5.4,6.1,-999,0.00,,,0.00,customPerl,2013-02-09 08:07:00,
2013-02-09 01:17:00,33.0,-99.9,-100.00,NNW,348,4.3,5.0,-999,0.00,,,0.00,customPerl,2013-02-09 08:17:00,
2013-02-09 01:27:00,31.0,-99.9,-100.00,North,355,4.9,6.1,-999,0.00,,,0.00,customPerl,2013-02-09 08:27:00,
2013-02-09 01:32:00,29.0,-99.9,-100.00,North,356,5.5,6.8,-999,0.00,,,0.00,customPerl,2013-02-09 08:32:00,
2013-02-09 01:37:00,25.0,-99.9,-100.00,North,3,6.4,7.9,-999,0.00,,,0.00,customPerl,2013-02-09 08:37:00,
2013-02-09 01:42:00,26.0,-99.9,-100.00,North,1,7.0,8.0,-999,0.00,,,0.00,customPerl,2013-02-09 08:42:00,
2013-02-09 01:47:00,25.0,-99.9,-100.00,North,353,7.3,7.9,-999,0.00,,,0.00,customPerl,2013-02-09 08:47:00,
2013-02-09 01:52:00,24.0,-99.9,-100.00,North,358,9.0,10.0,-999,0.00,,,0.00,customPerl,2013-02-09 08:52:00,
2013-02-09 01:57:00,27.0,-99.9,-100.00,North,4,7.7,8.8,-999,0.00,,,0.00,customPerl,2013-02-09 08:57:00,
2013-02-09 02:02:00,26.0,-99.9,-100.00,North,356,8.1,9.9,-999,0.00,,,0.00,customPerl,2013-02-09 09:02:00,
2013-02-09 02:07:00,23.0,-99.9,-100.00,North,0,8.4,9.7,-999,0.00,,,0.00,customPerl,2013-02-09 09:07:00,
2013-02-09 02:12:00,24.0,-99.9,-100.00,North,8,10.4,11.9,-999,0.00,,,0.00,customPerl,2013-02-09 09:12:00,
2013-02-09 02:17:00,20.0,-99.9,-100.00,North,4,11.3,13.8,-999,0.00,,,0.00,customPerl,2013-02-09 09:17:00,
2013-02-09 02:22:00,16.0,-99.9,-100.00,NNE,18,12.7,15.4,-999,0.00,,,0.00,customPerl,2013-02-09 09:22:00,
2013-02-09 02:27:00,17.0,-99.9,-100.00,North,6,11.9,15.0,-999,0.00,,,0.00,customPerl,2013-02-09 09:27:00,
2013-02-09 02:32:00,15.0,-99.9,-100.00,NNE,17,13.1,15.6,-999,0.00,,,0.00,customPerl,2013-02-09 09:32:00,
2013-02-09 02:37:00,19.0,-99.9,-100.00,NNE,17,13.7,15.5,-999,0.00,,,0.00,customPerl,2013-02-09 09:37:00,
2013-02-09 02:42:00,16.0,-99.9,-100.00,North,11,13.7,15.8,-999,0.00,,,0.00,customPerl,2013-02-09 09:42:00,
2013-02-09 02:52:00,23.0,-99.9,-100.00,North,358,14.0,16.7,-999,0.00,,,0.00,customPerl,2013-02-09 09:52:00,
2013-02-09 02:57:00,18.0,-99.9,-100.00,NNE,16,14.1,16.2,-999,0.00,,,0.00,customPerl,2013-02-09 09:57:00,
2013-02-09 03:02:00,18.0,-99.9,-100.00,North,2,13.8,15.9,-999,0.00,,,0.00,customPerl,2013-02-09 10:02:00,
2013-02-09 03:07:00,19.0,-99.9,-100.00,North,5,13.0,15.7,-999,0.00,,,0.00,customPerl,2013-02-09 10:07:00,
2013-02-09 03:12:00,18.0,-99.9,-100.00,North,2,13.3,16.3,-999,0.00,,,0.00,customPerl,2013-02-09 10:12:00,
2013-02-09 03:17:00,17.0,-99.9,-100.00,North,7,13.8,17.6,-999,0.00,,,0.00,customPerl,2013-02-09 10:17:00,
2013-02-09 03:22:00,17.0,-99.9,-100.00,North,1,13.1,14.5,-999,0.00,,,0.00,customPerl,2013-02-09 10:22:00,
2013-02-09 03:27:00,17.0,-99.9,-100.00,NNE,14,12.4,14.5,-999,0.00,,,0.00,customPerl,2013-02-09 10:27:00,
2013-02-09 03:32:00,15.0,-99.9,-100.00,North,3,13.3,16.5,-999,0.00,,,0.00,customPerl,2013-02-09 10:32:00,
2013-02-09 03:37:00,14.0,-99.9,-100.00,NNE,12,13.8,16.8,-999,0.00,,,0.00,customPerl,2013-02-09 10:37:00,
2013-02-09 03:42:00,15.0,-99.9,-100.00,North,4,14.5,17.4,-999,0.00,,,0.00,customPerl,2013-02-09 10:42:00,
2013-02-09 03:47:00,20.0,-99.9,-100.00,North,358,13.4,16.3,-999,0.00,,,0.00,customPerl,2013-02-09 10:47:00,
2013-02-09 03:52:00,18.0,-99.9,-100.00,North,357,11.3,14.1,-999,0.00,,,0.00,customPerl,2013-02-09 10:52:00,
2013-02-09 03:57:00,18.0,-99.9,-100.00,North,4,11.8,14.1,-999,0.00,,,0.00,customPerl,2013-02-09 10:57:00,
2013-02-09 04:02:00,18.0,-99.9,-100.00,North,9,12.2,15.1,-999,0.00,,,0.00,customPerl,2013-02-09 11:02:00,
2013-02-09 04:07:00,18.0,-99.9,-100.00,North,358,12.6,13.8,-999,0.00,,,0.00,customPerl,2013-02-09 11:07:00,
2013-02-09 04:12:00,23.0,-99.9,-100.00,North,358,12.4,13.7,-999,0.00,,,0.00,customPerl,2013-02-09 11:12:00,
2013-02-09 04:17:00,20.0,-99.9,-100.00,North,358,10.9,13.9,-999,0.00,,,0.00,customPerl,2013-02-09 11:17:00,
2013-02-09 04:22:00,21.0,-99.9,-100.00,North,5,11.7,14.3,-999,0.00,,,0.00,customPerl,2013-02-09 11:22:00,
2013-02-09 04:27:00,16.0,-99.9,-100.00,North,356,12.3,16.3,-999,0.00,,,0.00,customPerl,2013-02-09 11:27:00,
2013-02-09 04:32:00,17.0,-99.9,-100.00,North,11,10.8,12.6,-999,0.00,,,0.00,customPerl,2013-02-09 11:32:00,
2013-02-09 04:37:00,17.0,-99.9,-100.00,North,8,10.7,13.6,-999,0.00,,,0.00,customPerl,2013-02-09 11:37:00,
2013-02-09 04:42:00,14.0,-99.9,-100.00,NNE,12,13.2,15.9,-999,0.00,,,0.00,customPerl,2013-02-09 11:42:00,
2013-02-09 04:47:00,14.0,-99.9,-100.00,North,6,14.6,18.0,-999,0.00,,,0.00,customPerl,2013-02-09 11:47:00,
2013-02-09 04:52:00,11.0,-99.9,-100.00,North,9,15.3,17.5,-999,0.00,,,0.00,customPerl,2013-02-09 11:52:00,
2013-02-09 04:57:00,13.0,-99.9,-100.00,North,4,15.3,17.4,-999,0.00,,,0.00,customPerl,2013-02-09 11:57:00,
2013-02-09 05:02:00,13.0,-99.9,-100.00,North,4,13.9,16.4,-999,0.00,,,0.00,customPerl,2013-02-09 12:02:00,
2013-02-09 05:07:00,15.0,-99.9,-100.00,North,9,12.3,15.3,-999,0.00,,,0.00,customPerl,2013-02-09 12:07:00,
2013-02-09 05:12:00,17.0,-99.9,-100.00,North,0,11.5,13.8,-999,0.00,,,0.00,customPerl,2013-02-09 12:12:00,
2013-02-09 05:17:00,19.0,-99.9,-100.00,North,2,11.5,14.2,-999,0.00,,,0.00,customPerl,2013-02-09 12:17:00,
2013-02-09 05:22:00,18.0,-99.9,-100.00,North,8,11.1,13.4,-999,0.00,,,0.00,customPerl,2013-02-09 12:22:00,
2013-02-09 05:27:00,17.0,-99.9,-100.00,North,6,12.0,14.3,-999,0.00,,,0.00,customPerl,2013-02-09 12:27:00,
2013-02-09 05:32:00,14.0,-99.9,-100.00,NNE,16,10.3,12.6,-999,0.00,,,0.00,customPerl,2013-02-09 12:32:00,
2013-02-09 05:37:00,14.0,-99.9,-100.00,North,10,11.6,14.2,-999,0.00,,,0.00,customPerl,2013-02-09 12:37:00,
2013-02-09 05:42:00,15.0,-99.9,-100.00,North,9,12.7,15.1,-999,0.00,,,0.00,customPerl,2013-02-09 12:42:00,
2013-02-09 05:47:00,12.0,-99.9,-100.00,North,4,13.1,15.2,-999,0.00,,,0.00,customPerl,2013-02-09 12:47:00,
2013-02-09 05:52:00,11.0,-99.9,-100.00,NNE,15,14.9,18.4,-999,0.00,,,0.00,customPerl,2013-02-09 12:52:00,
2013-02-09 05:57:00,18.0,-99.9,-100.00,North,1,12.5,16.7,-999,0.00,,,0.00,customPerl,2013-02-09 12:57:00,
2013-02-09 06:02:00,16.0,-99.9,-100.00,North,357,13.6,16.0,-999,0.00,,,0.00,customPerl,2013-02-09 13:02:00,
2013-02-09 06:07:00,17.0,-99.9,-100.00,North,359,10.3,13.2,-999,0.00,,,0.00,customPerl,2013-02-09 13:07:00,
2013-02-09 06:12:00,22.0,-99.9,-100.00,North,3,11.8,15.4,-999,0.00,,,0.00,customPerl,2013-02-09 13:12:00,
2013-02-09 06:17:00,20.0,-99.9,-100.00,North,0,9.8,12.1,-999,0.00,,,0.00,customPerl,2013-02-09 13:17:00,
2013-02-09 06:22:00,24.0,-99.9,-100.00,North,2,8.6,11.8,-999,0.00,,,0.00,customPerl,2013-02-09 13:22:00,
2013-02-09 06:27:00,23.0,-99.9,-100.00,North,358,9.3,11.2,-999,0.00,,,0.00,customPerl,2013-02-09 13:27:00,
2013-02-09 06:32:00,30.0,-99.9,-100.00,North,358,7.6,10.2,-999,0.00,,,0.00,customPerl,2013-02-09 13:32:00,
2013-02-09 06:37:00,24.0,-99.9,-100.00,North,350,1.3,4.6,-999,0.00,,,0.00,customPerl,2013-02-09 13:37:00,
2013-02-09 06:42:00,24.0,-99.9,-100.00,NNW,341,0.0,0.0,-999,0.00,,,0.00,customPerl,2013-02-09 13:42:00,
2013-02-09 06:47:00,26.0,-99.9,-100.00,North,349,6.6,9.5,-999,0.00,,,0.00,customPerl,2013-02-09 13:47:00,
2013-02-09 06:52:00,24.0,-99.9,-100.00,NNW,340,1.6,5.6,-999,0.00,,,0.00,customPerl,2013-02-09 13:52:00,
2013-02-09 06:57:00,23.0,-99.9,-100.00,NNW,345,0.0,0.0,-999,0.00,,,0.00,customPerl,2013-02-09 13:57:00,
2013-02-09 07:02:00,23.0,-99.9,-100.00,North,356,3.8,6.4,-999,0.00,,,0.00,customPerl,2013-02-09 14:02:00,
2013-02-09 07:07:00,20.0,-99.9,-100.00,NNW,346,3.7,10.4,-999,0.00,,,0.00,customPerl,2013-02-09 14:07:00,
2013-02-09 07:12:00,25.0,-99.9,-100.00,North,349,8.1,10.1,-999,0.00,,,0.00,customPerl,2013-02-09 14:12:00,
2013-02-09 07:17:00,22.0,-99.9,-100.00,North,349,7.3,9.0,-999,0.00,,,0.00,customPerl,2013-02-09 14:17:00,
2013-02-09 07:22:00,21.0,-99.9,-100.00,North,350,7.4,9.9,-999,0.00,,,0.00,customPerl,2013-02-09 14:22:00,
2013-02-09 07:27:00,24.0,-99.9,-100.00,North,358,6.7,9.5,-999,0.00,,,0.00,customPerl,2013-02-09 14:27:00,
2013-02-09 07:32:00,26.0,-99.9,-100.00,North,356,6.8,9.7,-999,0.00,,,0.00,customPerl,2013-02-09 14:32:00,
2013-02-09 07:37:00,25.0,-99.9,-100.00,North,351,7.1,10.3,-999,0.00,,,0.00,customPerl,2013-02-09 14:37:00,
2013-02-09 07:42:00,30.0,-99.9,-100.00,North,355,7.0,9.7,-999,0.00,,,0.00,customPerl,2013-02-09 14:42:00,
2013-02-09 07:47:00,35.0,-99.9,-100.00,North,351,6.1,8.4,-999,0.00,,,0.00,customPerl,2013-02-09 14:47:00,
2013-02-09 07:52:00,30.0,-99.9,-100.00,NNW,341,5.2,7.2,-999,0.00,,,0.00,customPerl,2013-02-09 14:52:00,
2013-02-09 07:57:00,28.0,-99.9,-100.00,NNW,342,6.1,8.1,-999,0.00,,,0.00,customPerl,2013-02-09 14:57:00,
2013-02-09 08:02:00,29.0,-99.9,-100.00,North,353,7.2,9.0,-999,0.00,,,0.00,customPerl,2013-02-09 15:02:00,
2013-02-09 08:07:00,26.0,-99.9,-100.00,North,355,8.2,10.4,-999,0.00,,,0.00,customPerl,2013-02-09 15:07:00,
2013-02-09 08:12:00,25.0,-99.9,-100.00,North,353,9.9,13.8,-999,0.00,,,0.00,customPerl,2013-02-09 15:12:00,
2013-02-09 08:17:00,24.0,-99.9,-100.00,North,2,11.0,13.1,-999,0.00,,,0.00,customPerl,2013-02-09 15:17:00,
2013-02-09 08:22:00,25.0,-99.9,-100.00,North,359,9.9,11.6,-999,0.00,,,0.00,customPerl,2013-02-09 15:22:00,
2013-02-09 08:27:00,25.0,-99.9,-100.00,North,1,10.9,12.5,-999,0.00,,,0.00,customPerl,2013-02-09 15:27:00,
2013-02-09 08:32:00,25.0,-99.9,-100.00,North,359,10.4,12.4,-999,0.00,,,0.00,customPerl,2013-02-09 15:32:00,
2013-02-09 08:37:00,27.0,-99.9,-100.00,North,356,10.4,12.3,-999,0.00,,,0.00,customPerl,2013-02-09 15:37:00,
2013-02-09 08:42:00,29.0,-99.9,-100.00,North,358,11.7,14.6,-999,0.00,,,0.00,customPerl,2013-02-09 15:42:00,
2013-02-09 08:47:00,28.0,-99.9,-100.00,North,3,10.9,13.6,-999,0.00,,,0.00,customPerl,2013-02-09 15:47:00,
2013-02-09 08:52:00,26.0,-99.9,-100.00,NNW,348,10.3,11.8,-999,0.00,,,0.00,customPerl,2013-02-09 15:52:00,
2013-02-09 08:57:00,29.0,-99.9,-100.00,North,6,10.8,13.6,-999,0.00,,,0.00,customPerl,2013-02-09 15:57:00,
2013-02-09 09:02:00,27.0,-99.9,-100.00,North,355,11.1,13.7,-999,0.00,,,0.00,customPerl,2013-02-09 16:02:00,
2013-02-09 09:07:00,28.0,-99.9,-100.00,North,356,11.8,14.3,-999,0.00,,,0.00,customPerl,2013-02-09 16:07:00,
2013-02-09 09:12:00,30.0,-99.9,-100.00,North,7,9.6,11.5,-999,0.00,,,0.00,customPerl,2013-02-09 16:12:00,
2013-02-09 09:17:00,29.0,-99.9,-100.00,North,355,9.7,11.6,-999,0.00,,,0.00,customPerl,2013-02-09 16:17:00,
2013-02-09 09:22:00,36.0,-99.9,-100.00,North,349,9.2,11.1,-999,0.00,,,0.00,customPerl,2013-02-09 16:22:00,
2013-02-09 09:27:00,34.0,-99.9,-100.00,North,354,8.8,11.2,-999,0.00,,,0.00,customPerl,2013-02-09 16:27:00,
2013-02-09 09:32:00,34.0,-99.9,-100.00,North,0,8.3,10.2,-999,0.00,,,0.00,customPerl,2013-02-09 16:32:00,
2013-02-09 09:37:00,32.0,-99.9,-100.00,North,0,8.5,11.3,-999,0.00,,,0.00,customPerl,2013-02-09 16:37:00,
2013-02-09 09:42:00,34.0,-99.9,-100.00,North,3,7.8,10.0,-999,0.00,,,0.00,customPerl,2013-02-09 16:42:00,
2013-02-09 09:47:00,34.0,-99.9,-100.00,North,357,9.5,10.8,-999,0.00,,,0.00,customPerl,2013-02-09 16:47:00,
2013-02-09 09:52:00,32.0,-99.9,-100.00,North,8,9.8,11.8,-999,0.00,,,0.00,customPerl,2013-02-09 16:52:00,
2013-02-09 09:57:00,34.0,-99.9,-100.00,North,4,8.0,10.0,-999,0.00,,,0.00,customPerl,2013-02-09 16:57:00,
2013-02-09 10:02:00,30.0,-99.9,-100.00,North,2,11.1,14.9,-999,0.00,,,0.00,customPerl,2013-02-09 17:02:00,
2013-02-09 10:07:00,33.0,-99.9,-100.00,NNE,16,12.1,15.2,-999,0.00,,,0.00,customPerl,2013-02-09 17:07:00,
2013-02-09 10:12:00,29.0,-99.9,-100.00,North,8,9.4,13.0,-999,0.00,,,0.00,customPerl,2013-02-09 17:12:00,
2013-02-09 10:17:00,37.0,-99.9,-100.00,North,11,9.1,14.7,-999,0.00,,,0.00,customPerl,2013-02-09 17:17:00,
2013-02-09 10:22:00,39.0,-99.9,-100.00,North,11,7.9,9.9,-999,0.00,,,0.00,customPerl,2013-02-09 17:22:00,
2013-02-09 10:27:00,38.0,-99.9,-100.00,NNE,13,8.2,13.4,-999,0.00,,,0.00,customPerl,2013-02-09 17:27:00,
2013-02-09 10:32:00,39.0,-99.9,-100.00,North,356,8.9,10.1,-999,0.00,,,0.00,customPerl,2013-02-09 17:32:00,
2013-02-09 10:37:00,36.0,-99.9,-100.00,NNE,12,9.0,12.4,-999,0.00,,,0.00,customPerl,2013-02-09 17:37:00,
2013-02-09 10:42:00,35.0,-99.9,-100.00,NNE,13,9.3,13.3,-999,0.00,,,0.00,customPerl,2013-02-09 17:42:00,
2013-02-09 10:47:00,39.0,-99.9,-100.00,North,7,9.2,12.3,-999,0.00,,,0.00,customPerl,2013-02-09 17:47:00,
2013-02-09 10:52:00,39.0,-99.9,-100.00,North,359,9.5,14.4,-999,0.00,,,0.00,customPerl,2013-02-09 17:52:00,
2013-02-09 10:57:00,35.0,-99.9,-100.00,North,7,9.9,13.8,-999,0.00,,,0.00,customPerl,2013-02-09 17:57:00,
2013-02-09 11:02:00,39.0,-99.9,-100.00,NNE,16,10.9,14.5,-999,0.00,,,0.00,customPerl,2013-02-09 18:02:00,
2013-02-09 11:07:00,37.0,-99.9,-100.00,North,7,10.0,15.4,-999,0.00,,,0.00,customPerl,2013-02-09 18:07:00,
2013-02-09 11:12:00,38.0,-99.9,-100.00,NNE,21,11.7,17.0,-999,0.00,,,0.00,customPerl,2013-02-09 18:12:00,
2013-02-09 11:17:00,38.0,-99.9,-100.00,NNE,26,12.2,16.4,-999,0.00,,,0.00,customPerl,2013-02-09 18:17:00,
2013-02-09 11:22:00,35.0,-99.9,-100.00,NNE,14,11.9,16.9,-999,0.00,,,0.00,customPerl,2013-02-09 18:22:00,
2013-02-09 11:27:00,37.0,-99.9,-100.00,North,7,12.8,16.4,-999,0.00,,,0.00,customPerl,2013-02-09 18:27:00,
2013-02-09 11:32:00,35.0,-99.9,-100.00,North,9,12.0,15.2,-999,0.00,,,0.00,customPerl,2013-02-09 18:32:00,
2013-02-09 11:37:00,33.0,-99.9,-100.00,NNE,15,13.1,15.9,-999,0.00,,,0.00,customPerl,2013-02-09 18:37:00,
2013-02-09 11:42:00,32.0,-99.9,-100.00,NNE,25,12.5,17.6,-999,0.00,,,0.00,customPerl,2013-02-09 18:42:00,
2013-02-09 11:47:00,33.0,-99.9,-100.00,NNE,32,13.0,18.0,-999,0.00,,,0.00,customPerl,2013-02-09 18:47:00,
2013-02-09 11:57:00,34.0,-99.9,-100.00,North,5,11.2,15.1,-999,0.00,,,0.00,customPerl,2013-02-09 18:57:00,
2013-02-09 12:02:00,32.0,-99.9,-100.00,NNE,13,10.5,15.2,-999,0.00,,,0.00,customPerl,2013-02-09 19:02:00,
2013-02-09 12:07:00,34.0,-99.9,-100.00,North,11,11.4,15.3,-999,0.00,,,0.00,customPerl,2013-02-09 19:07:00,
2013-02-09 12:12:00,36.0,-99.9,-100.00,NNE,17,10.8,14.5,-999,0.00,,,0.00,customPerl,2013-02-09 19:12:00,
2013-02-09 12:17:00,34.0,-99.9,-100.00,NNE,15,12.2,16.8,-999,0.00,,,0.00,customPerl,2013-02-09 19:17:00,
2013-02-09 12:22:00,37.0,-99.9,-100.00,NNE,23,9.0,11.9,-999,0.00,,,0.00,customPerl,2013-02-09 19:22:00,
2013-02-09 12:27:00,37.0,-99.9,-100.00,NNE,23,9.0,12.4,-999,0.00,,,0.00,customPerl,2013-02-09 19:27:00,
2013-02-09 12:37:00,34.0,-99.9,-100.00,NE,44,10.4,13.4,-999,0.00,,,0.00,customPerl,2013-02-09 19:37:00,
2013-02-09 12:47:00,32.0,-99.9,-100.00,NNE,23,10.2,12.5,-999,0.00,,,0.00,customPerl,2013-02-09 19:47:00,
2013-02-09 12:52:00,28.0,-99.9,-100.00,NNE,28,11.6,13.3,-999,0.00,,,0.00,customPerl,2013-02-09 19:52:00,
2013-02-09 12:57:00,31.0,-99.9,-100.00,NNE,20,13.6,15.9,-999,0.00,,,0.00,customPerl,2013-02-09 19:57:00,
2013-02-09 13:07:00,28.0,-99.9,-100.00,NNE,27,11.8,14.9,-999,0.00,,,0.00,customPerl,2013-02-09 20:07:00,
2013-02-09 13:12:00,26.0,-99.9,-100.00,NNE,25,11.1,14.8,-999,0.00,,,0.00,customPerl,2013-02-09 20:12:00,
2013-02-09 13:17:00,31.0,-99.9,-100.00,North,8,11.1,14.1,-999,0.00,,,0.00,customPerl,2013-02-09 20:17:00,
2013-02-09 13:22:00,31.0,-99.9,-100.00,NNE,15,9.9,13.8,-999,0.00,,,0.00,customPerl,2013-02-09 20:22:00,
2013-02-09 13:27:00,36.0,-99.9,-100.00,North,2,8.8,11.0,-999,0.00,,,0.00,customPerl,2013-02-09 20:27:00,
2013-02-09 13:32:00,27.0,-99.9,-100.00,North,358,10.6,14.5,-999,0.00,,,0.00,customPerl,2013-02-09 20:32:00,
2013-02-09 13:37:00,25.0,-99.9,-100.00,NNE,24,11.8,15.1,-999,0.00,,,0.00,customPerl,2013-02-09 20:37:00,
2013-02-09 13:42:00,24.0,-99.9,-100.00,NNE,29,11.9,15.8,-999,0.00,,,0.00,customPerl,2013-02-09 20:42:00,
2013-02-09 13:47:00,30.0,-99.9,-100.00,NNE,30,13.1,16.3,-999,0.00,,,0.00,customPerl,2013-02-09 20:47:00,
2013-02-09 13:52:00,28.0,-99.9,-100.00,NNE,33,10.6,16.3,-999,0.00,,,0.00,customPerl,2013-02-09 20:52:00,
2013-02-09 13:57:00,24.0,-99.9,-100.00,NNE,24,11.7,14.7,-999,0.00,,,0.00,customPerl,2013-02-09 20:57:00,
2013-02-09 14:02:00,24.0,-99.9,-100.00,NNE,24,11.3,14.3,-999,0.00,,,0.00,customPerl,2013-02-09 21:02:00,
2013-02-09 14:07:00,24.0,-99.9,-100.00,NNE,30,11.6,15.5,-999,0.00,,,0.00,customPerl,2013-02-09 21:07:00,
2013-02-09 14:12:00,23.0,-99.9,-100.00,NNE,20,13.4,16.1,-999,0.00,,,0.00,customPerl,2013-02-09 21:12:00,
2013-02-09 14:17:00,21.0,-99.9,-100.00,NNE,25,13.9,16.5,-999,0.00,,,0.00,customPerl,2013-02-09 21:17:00,
2013-02-09 14:22:00,25.0,-99.9,-100.00,NNE,16,13.6,16.6,-999,0.00,,,0.00,customPerl,2013-02-09 21:22:00,
2013-02-09 14:32:00,28.0,-99.9,-100.00,NNE,15,12.5,14.4,-999,0.00,,,0.00,customPerl,2013-02-09 21:32:00,
2013-02-09 14:42:00,22.0,-99.9,-100.00,NNE,27,12.7,16.4,-999,0.00,,,0.00,customPerl,2013-02-09 21:42:00,
2013-02-09 14:47:00,24.0,-99.9,-100.00,NNE,22,14.7,16.6,-999,0.00,,,0.00,customPerl,2013-02-09 21:47:00,
2013-02-09 14:52:00,20.0,-99.9,-100.00,North,6,16.4,19.5,-999,0.00,,,0.00,customPerl,2013-02-09 21:52:00,
2013-02-09 14:57:00,21.0,-99.9,-100.00,NNE,28,14.5,18.9,-999,0.00,,,0.00,customPerl,2013-02-09 21:57:00,
2013-02-09 15:02:00,23.0,-99.9,-100.00,NNE,13,14.4,17.0,-999,0.00,,,0.00,customPerl,2013-02-09 22:02:00,
2013-02-09 15:07:00,20.0,-99.9,-100.00,NNE,24,14.9,17.3,-999,0.00,,,0.00,customPerl,2013-02-09 22:07:00,
2013-02-09 15:12:00,24.0,-99.9,-100.00,NNE,24,15.2,18.7,-999,0.00,,,0.00,customPerl,2013-02-09 22:12:00,
2013-02-09 15:17:00,23.0,-99.9,-100.00,NNE,17,13.7,16.5,-999,0.00,,,0.00,customPerl,2013-02-09 22:17:00,
2013-02-09 15:22:00,23.0,-99.9,-100.00,NNE,25,12.5,14.6,-999,0.00,,,0.00,customPerl,2013-02-09 22:22:00,
2013-02-09 15:32:00,20.0,-99.9,-100.00,NNE,21,13.3,16.4,-999,0.00,,,0.00,customPerl,2013-02-09 22:32:00,
2013-02-09 15:37:00,22.0,-99.9,-100.00,NNE,23,12.2,16.1,-999,0.00,,,0.00,customPerl,2013-02-09 22:37:00,
2013-02-09 15:42:00,27.0,-99.9,-100.00,NNE,25,13.3,15.1,-999,0.00,,,0.00,customPerl,2013-02-09 22:42:00,
2013-02-09 15:47:00,19.0,-99.9,-100.00,NNE,22,12.0,16.4,-999,0.00,,,0.00,customPerl,2013-02-09 22:47:00,
2013-02-09 15:57:00,22.0,-99.9,-100.00,NNE,26,12.6,17.8,-999,0.00,,,0.00,customPerl,2013-02-09 22:57:00,
2013-02-09 16:02:00,20.0,-99.9,-100.00,North,10,11.9,16.7,-999,0.00,,,0.00,customPerl,2013-02-09 23:02:00,
2013-02-09 16:07:00,20.0,-99.9,-100.00,NNE,30,13.7,16.1,-999,0.00,,,0.00,customPerl,2013-02-09 23:07:00,
2013-02-09 16:12:00,23.0,-99.9,-100.00,NNE,16,13.1,17.2,-999,0.00,,,0.00,customPerl,2013-02-09 23:12:00,
2013-02-09 16:17:00,18.0,-99.9,-100.00,NNE,24,12.9,19.5,-999,0.00,,,0.00,customPerl,2013-02-09 23:17:00,
2013-02-09 16:22:00,19.0,-99.9,-100.00,NNE,21,15.6,18.8,-999,0.00,,,0.00,customPerl,2013-02-09 23:22:00,
2013-02-09 16:32:00,21.0,-99.9,-100.00,NNE,21,13.7,16.6,-999,0.00,,,0.00,customPerl,2013-02-09 23:32:00,
2013-02-09 16:37:00,27.0,-99.9,-100.00,NNE,20,14.2,17.2,-999,0.00,,,0.00,customPerl,2013-02-09 23:37:00,
2013-02-09 16:42:00,25.0,-99.9,-100.00,NNE,25,13.9,17.7,-999,0.00,,,0.00,customPerl,2013-02-09 23:42:00,
2013-02-09 16:47:00,21.0,-99.9,-100.00,NNE,29,13.5,18.7,-999,0.00,,,0.00,customPerl,2013-02-09 23:47:00,
2013-02-09 16:52:00,22.0,-99.9,-100.00,NNE,24,13.2,16.1,-999,0.00,,,0.00,customPerl,2013-02-09 23:52:00,
2013-02-09 16:57:00,23.0,-99.9,-100.00,NNE,19,14.0,17.1,-999,0.00,,,0.00,customPerl,2013-02-09 23:57:00,
2013-02-09 17:02:00,18.0,-99.9,-100.00,NNE,15,15.0,17.3,-999,0.00,,,0.00,customPerl,2013-02-10 00:02:00,
2013-02-09 17:07:00,18.0,-99.9,-100.00,NNE,23,13.5,17.0,-999,0.00,,,0.00,customPerl,2013-02-10 00:07:00,
2013-02-09 17:12:00,27.0,-99.9,-100.00,NNE,14,13.9,18.2,-999,0.00,,,0.00,customPerl,2013-02-10 00:12:00,
2013-02-09 17:17:00,22.0,-99.9,-100.00,NNE,13,11.5,14.5,-999,0.00,,,0.00,customPerl,2013-02-10 00:17:00,
2013-02-09 17:22:00,16.0,-99.9,-100.00,North,5,14.3,18.5,-999,0.00,,,0.00,customPerl,2013-02-10 00:22:00,
2013-02-09 17:27:00,16.0,-99.9,-100.00,NNE,18,15.4,18.8,-999,0.00,,,0.00,customPerl,2013-02-10 00:27:00,
2013-02-09 17:32:00,23.0,-99.9,-100.00,North,3,13.8,18.7,-999,0.00,,,0.00,customPerl,2013-02-10 00:32:00,
2013-02-09 17:37:00,22.0,-99.9,-100.00,North,354,12.2,14.0,-999,0.00,,,0.00,customPerl,2013-02-10 00:37:00,
2013-02-09 17:42:00,19.0,-99.9,-100.00,North,6,13.0,16.2,-999,0.00,,,0.00,customPerl,2013-02-10 00:42:00,
2013-02-09 17:47:00,21.0,-99.9,-100.00,North,5,12.1,15.2,-999,0.00,,,0.00,customPerl,2013-02-10 00:47:00,
2013-02-09 17:52:00,19.0,-99.9,-100.00,North,4,10.4,13.0,-999,0.00,,,0.00,customPerl,2013-02-10 00:52:00,
2013-02-09 17:57:00,21.0,-99.9,-100.00,North,357,12.7,15.1,-999,0.00,,,0.00,customPerl,2013-02-10 00:57:00,
2013-02-09 18:02:00,20.0,-99.9,-100.00,North,353,11.3,13.4,-999,0.00,,,0.00,customPerl,2013-02-10 01:02:00,
2013-02-09 18:07:00,23.0,-99.9,-100.00,North,354,11.6,13.5,-999,0.00,,,0.00,customPerl,2013-02-10 01:07:00,
2013-02-09 18:12:00,20.0,-99.9,-100.00,NNW,348,9.4,11.8,-999,0.00,,,0.00,customPerl,2013-02-10 01:12:00,
2013-02-09 18:17:00,23.0,-99.9,-100.00,North,352,8.9,11.7,-999,0.00,,,0.00,customPerl,2013-02-10 01:17:00,
2013-02-09 18:22:00,24.0,-99.9,-100.00,NNW,344,9.5,12.0,-999,0.00,,,0.00,customPerl,2013-02-10 01:22:00,
2013-02-09 18:27:00,22.0,-99.9,-100.00,North,349,8.6,10.8,-999,0.00,,,0.00,customPerl,2013-02-10 01:27:00,
2013-02-09 18:32:00,28.0,-99.9,-100.00,North,350,7.5,11.5,-999,0.00,,,0.00,customPerl,2013-02-10 01:32:00,
2013-02-09 18:37:00,23.0,-99.9,-100.00,North,358,5.8,7.9,-999,0.00,,,0.00,customPerl,2013-02-10 01:37:00,
2013-02-09 18:42:00,24.0,-99.9,-100.00,North,356,7.2,9.9,-999,0.00,,,0.00,customPerl,2013-02-10 01:42:00,
2013-02-09 18:47:00,23.0,-99.9,-100.00,North,357,7.0,9.5,-999,0.00,,,0.00,customPerl,2013-02-10 01:47:00,
2013-02-09 18:52:00,28.0,-99.9,-100.00,NNE,16,8.1,11.4,-999,0.00,,,0.00,customPerl,2013-02-10 01:52:00,
2013-02-09 18:57:00,22.0,-99.9,-100.00,NNE,14,8.7,11.5,-999,0.00,,,0.00,customPerl,2013-02-10 01:57:00,
2013-02-09 19:07:00,29.0,-99.9,-100.00,North,7,7.3,9.1,-999,0.00,,,0.00,customPerl,2013-02-10 02:07:00,
2013-02-09 19:12:00,30.0,-99.9,-100.00,NNE,12,5.2,6.2,-999,0.00,,,0.00,customPerl,2013-02-10 02:12:00,
2013-02-09 19:17:00,24.0,-99.9,-100.00,North,6,1.2,4.4,-999,0.00,,,0.00,customPerl,2013-02-10 02:17:00,
2013-02-09 19:22:00,24.0,-99.9,-100.00,North,10,0.0,0.0,-999,0.00,,,0.00,customPerl,2013-02-10 02:22:00,
2013-02-09 19:27:00,20.0,-99.9,-100.00,NNE,14,4.4,13.2,-999,0.00,,,0.00,customPerl,2013-02-10 02:27:00,
2013-02-09 19:32:00,20.0,-99.9,-100.00,North,356,8.7,10.7,-999,0.00,,,0.00,customPerl,2013-02-10 02:32:00,
2013-02-09 19:37:00,20.0,-99.9,-100.00,North,354,8.4,9.4,-999,0.00,,,0.00,customPerl,2013-02-10 02:37:00,
2013-02-09 19:42:00,21.0,-99.9,-100.00,North,357,8.0,9.6,-999,0.00,,,0.00,customPerl,2013-02-10 02:42:00,
2013-02-09 19:47:00,23.0,-99.9,-100.00,North,356,8.5,10.0,-999,0.00,,,0.00,customPerl,2013-02-10 02:47:00,
2013-02-09 19:57:00,21.0,-99.9,-100.00,North,359,7.9,10.6,-999,0.00,,,0.00,customPerl,2013-02-10 02:57:00,
2013-02-09 20:02:00,24.0,-99.9,-100.00,North,1,8.5,10.1,-999,0.00,,,0.00,customPerl,2013-02-10 03:02:00,
2013-02-09 20:07:00,17.0,-99.9,-100.00,North,358,10.0,12.4,-999,0.00,,,0.00,customPerl,2013-02-10 03:07:00,
2013-02-09 20:12:00,15.0,-99.9,-100.00,North,2,11.2,15.3,-999,0.00,,,0.00,customPerl,2013-02-10 03:12:00,
2013-02-09 20:17:00,14.0,-99.9,-100.00,North,359,10.7,13.5,-999,0.00,,,0.00,customPerl,2013-02-10 03:17:00,
2013-02-09 20:22:00,17.0,-99.9,-100.00,North,0,10.0,11.4,-999,0.00,,,0.00,customPerl,2013-02-10 03:22:00,
2013-02-09 20:27:00,16.0,-99.9,-100.00,North,357,9.7,12.5,-999,0.00,,,0.00,customPerl,2013-02-10 03:27:00,
2013-02-09 20:32:00,15.0,-99.9,-100.00,North,7,9.7,11.9,-999,0.00,,,0.00,customPerl,2013-02-10 03:32:00,
2013-02-09 20:37:00,17.0,-99.9,-100.00,North,11,10.0,12.4,-999,0.00,,,0.00,customPerl,2013-02-10 03:37:00,
2013-02-09 20:42:00,23.0,-99.9,-100.00,North,4,8.3,10.3,-999,0.00,,,0.00,customPerl,2013-02-10 03:42:00,
2013-02-09 20:47:00,26.0,-99.9,-100.00,North,0,7.7,9.4,-999,0.00,,,0.00,customPerl,2013-02-10 03:47:00,
2013-02-09 20:52:00,23.0,-99.9,-100.00,North,5,7.2,8.4,-999,0.00,,,0.00,customPerl,2013-02-10 03:52:00,
2013-02-09 20:57:00,29.0,-99.9,-100.00,North,351,6.4,8.2,-999,0.00,,,0.00,customPerl,2013-02-10 03:57:00,
2013-02-09 21:02:00,24.0,-99.9,-100.00,North,349,6.5,7.7,-999,0.00,,,0.00,customPerl,2013-02-10 04:02:00,
2013-02-09 21:12:00,26.0,-99.9,-100.00,North,354,6.1,7.6,-999,0.00,,,0.00,customPerl,2013-02-10 04:12:00,
2013-02-09 21:17:00,28.0,-99.9,-100.00,North,3,5.8,6.9,-999,0.00,,,0.00,customPerl,2013-02-10 04:17:00,
2013-02-09 21:22:00,30.0,-99.9,-100.00,North,352,5.1,6.6,-999,0.00,,,0.00,customPerl,2013-02-10 04:22:00,
2013-02-09 21:27:00,21.0,-99.9,-100.00,NNW,348,5.3,8.1,-999,0.00,,,0.00,customPerl,2013-02-10 04:27:00,
2013-02-09 21:32:00,23.0,-99.9,-100.00,NNW,346,7.7,9.7,-999,0.00,,,0.00,customPerl,2013-02-10 04:32:00,
2013-02-09 21:37:00,21.0,-99.9,-100.00,North,354,8.5,9.9,-999,0.00,,,0.00,customPerl,2013-02-10 04:37:00,
2013-02-09 21:42:00,25.0,-99.9,-100.00,North,355,7.8,10.1,-999,0.00,,,0.00,customPerl,2013-02-10 04:42:00,
2013-02-09 21:47:00,25.0,-99.9,-100.00,NNW,347,7.6,9.5,-999,0.00,,,0.00,customPerl,2013-02-10 04:47:00,
2013-02-09 21:52:00,24.0,-99.9,-100.00,North,358,6.2,7.6,-999,0.00,,,0.00,customPerl,2013-02-10 04:52:00,
2013-02-09 21:57:00,28.0,-99.9,-100.00,North,355,5.7,7.3,-999,0.00,,,0.00,customPerl,2013-02-10 04:57:00,
2013-02-09 22:02:00,29.0,-99.9,-100.00,North,350,5.3,7.3,-999,0.00,,,0.00,customPerl,2013-02-10 05:02:00,
2013-02-09 22:07:00,29.0,-99.9,-100.00,NNW,342,5.1,6.9,-999,0.00,,,0.00,customPerl,2013-02-10 05:07:00,
2013-02-09 22:12:00,25.0,-99.9,-100.00,NNW,336,5.6,7.4,-999,0.00,,,0.00,customPerl,2013-02-10 05:12:00,
2013-02-09 22:17:00,25.0,-99.9,-100.00,North,349,4.1,6.3,-999,0.00,,,0.00,customPerl,2013-02-10 05:17:00,
2013-02-09 22:22:00,22.0,-99.9,-100.00,NNW,347,3.4,8.0,-999,0.00,,,0.00,customPerl,2013-02-10 05:22:00,
2013-02-09 22:27:00,23.0,-99.9,-100.00,NNW,328,8.0,10.5,-999,0.00,,,0.00,customPerl,2013-02-10 05:27:00,
2013-02-09 22:32:00,25.0,-99.9,-100.00,NNW,339,7.9,10.8,-999,0.00,,,0.00,customPerl,2013-02-10 05:32:00,
2013-02-09 22:37:00,22.0,-99.9,-100.00,NNW,334,7.3,9.4,-999,0.00,,,0.00,customPerl,2013-02-10 05:37:00,
2013-02-09 22:42:00,23.0,-99.9,-100.00,NW,326,7.2,9.1,-999,0.00,,,0.00,customPerl,2013-02-10 05:42:00,
2013-02-09 22:47:00,26.0,-99.9,-100.00,NW,326,7.4,9.6,-999,0.00,,,0.00,customPerl,2013-02-10 05:47:00,
2013-02-09 22:52:00,25.0,-99.9,-100.00,NNW,332,2.9,7.1,-999,0.00,,,0.00,customPerl,2013-02-10 05:52:00,
2013-02-09 22:57:00,22.0,-99.9,-100.00,NNW,335,5.6,10.1,-999,0.00,,,0.00,customPerl,2013-02-10 05:57:00,
2013-02-09 23:02:00,18.0,-99.9,-100.00,NNW,328,8.8,11.5,-999,0.00,,,0.00,customPerl,2013-02-10 06:02:00,
2013-02-09 23:07:00,22.0,-99.9,-100.00,NNW,335,8.3,10.7,-999,0.00,,,0.00,customPerl,2013-02-10 06:07:00,
2013-02-09 23:12:00,28.0,-99.9,-100.00,NNW,327,5.9,8.4,-999,0.00,,,0.00,customPerl,2013-02-10 06:12:00,
2013-02-09 23:17:00,25.0,-99.9,-100.00,NNW,332,6.4,8.1,-999,0.00,,,0.00,customPerl,2013-02-10 06:17:00,
2013-02-09 23:22:00,24.0,-99.9,-100.00,NNW,328,5.3,7.4,-999,0.00,,,0.00,customPerl,2013-02-10 06:22:00,
2013-02-09 23:27:00,24.0,-99.9,-100.00,NW,326,0.0,0.0,-999,0.00,,,0.00,customPerl,2013-02-10 06:27:00,
2013-02-09 23:32:00,24.0,-99.9,-100.00,NW,320,0.0,0.0,-999,0.00,,,0.00,customPerl,2013-02-10 06:32:00,
2013-02-09 23:37:00,23.0,-99.9,-100.00,NNW,329,0.0,0.0,-999,0.00,,,0.00,customPerl,2013-02-10 06:37:00,
2013-02-09 23:42:00,23.0,-99.9,-100.00,NW,325,0.0,0.0,-999,0.00,,,0.00,customPerl,2013-02-10 06:42:00,